sensor_id;sensor_type;location;lat;lon;timestamp;pressure;altitude;pressure_sealevel;temperature;humidity
52249;BME280;38541;48.130;8.378;2022-12-18T00:01:24;93433.63;;;-10.39;80.88
52249;BME280;38541;48.130;8.378;2022-12-18T00:03:52;93429.00;;;-10.22;81.36
52249;BME280;38541;48.130;8.378;2022-12-18T00:06:20;93421.34;;;-10.11;81.74
52249;BME280;38541;48.130;8.378;2022-12-18T00:08:46;93418.22;;;-10.03;81.65
52249;BME280;38541;48.130;8.378;2022-12-18T00:11:20;93427.66;;;-9.94;82.04
52249;BME280;38541;48.130;8.378;2022-12-18T00:13:48;93412.72;;;-9.87;82.13
52249;BME280;38541;48.130;8.378;2022-12-18T00:16:19;93406.22;;;-9.80;82.43
52249;BME280;38541;48.130;8.378;2022-12-18T00:18:51;93410.84;;;-9.73;82.32
52249;BME280;38541;48.130;8.378;2022-12-18T00:21:19;93417.03;;;-9.66;82.49
52249;BME280;38541;48.130;8.378;2022-12-18T00:23:47;93424.84;;;-9.58;82.60
52249;BME280;38541;48.130;8.378;2022-12-18T00:26:17;93417.66;;;-9.53;82.71
52249;BME280;38541;48.130;8.378;2022-12-18T00:28:45;93433.25;;;-9.46;82.47
52249;BME280;38541;48.130;8.378;2022-12-18T00:31:15;93425.22;;;-9.41;82.53
52249;BME280;38541;48.130;8.378;2022-12-18T00:33:43;93432.38;;;-9.35;82.36
52249;BME280;38541;48.130;8.378;2022-12-18T00:36:12;93431.88;;;-9.29;82.41
52249;BME280;38541;48.130;8.378;2022-12-18T00:38:39;93431.75;;;-9.27;81.93
52249;BME280;38541;48.130;8.378;2022-12-18T00:41:06;93426.28;;;-9.23;81.92
52249;BME280;38541;48.130;8.378;2022-12-18T00:43:35;93431.13;;;-9.20;81.82
52249;BME280;38541;48.130;8.378;2022-12-18T00:46:03;93440.13;;;-9.15;81.44
52249;BME280;38541;48.130;8.378;2022-12-18T00:48:31;93435.72;;;-9.13;81.19
52249;BME280;38541;48.130;8.378;2022-12-18T00:50:57;93440.56;;;-9.10;81.58
52249;BME280;38541;48.130;8.378;2022-12-18T00:53:24;93429.88;;;-9.04;81.61
52249;BME280;38541;48.130;8.378;2022-12-18T00:55:50;93430.56;;;-9.02;81.25
52249;BME280;38541;48.130;8.378;2022-12-18T00:58:17;93427.88;;;-9.00;81.56
52249;BME280;38541;48.130;8.378;2022-12-18T01:00:43;93431.00;;;-8.97;81.63
52249;BME280;38541;48.130;8.378;2022-12-18T01:03:13;93436.63;;;-8.93;81.87
52249;BME280;38541;48.130;8.378;2022-12-18T01:05:42;93440.66;;;-8.91;81.82
52249;BME280;38541;48.130;8.378;2022-12-18T01:08:10;93449.81;;;-8.88;82.00
52249;BME280;38541;48.130;8.378;2022-12-18T01:10:40;93439.22;;;-8.83;82.31
52249;BME280;38541;48.130;8.378;2022-12-18T01:13:07;93440.84;;;-8.82;82.47
52249;BME280;38541;48.130;8.378;2022-12-18T01:15:33;93439.41;;;-8.75;82.47
52249;BME280;38541;48.130;8.378;2022-12-18T01:18:00;93437.84;;;-8.66;82.27
52249;BME280;38541;48.130;8.378;2022-12-18T01:20:26;93442.16;;;-8.57;82.29
52249;BME280;38541;48.130;8.378;2022-12-18T01:22:53;93442.44;;;-8.50;82.15
52249;BME280;38541;48.130;8.378;2022-12-18T01:25:19;93448.63;;;-8.43;82.52
52249;BME280;38541;48.130;8.378;2022-12-18T01:27:45;93443.78;;;-8.36;82.25
52249;BME280;38541;48.130;8.378;2022-12-18T01:30:12;93444.09;;;-8.29;82.08
52249;BME280;38541;48.130;8.378;2022-12-18T01:32:39;93441.72;;;-8.21;82.18
52249;BME280;38541;48.130;8.378;2022-12-18T01:35:06;93446.28;;;-8.15;81.74
52249;BME280;38541;48.130;8.378;2022-12-18T01:37:33;93447.38;;;-8.08;81.85
52249;BME280;38541;48.130;8.378;2022-12-18T01:39:59;93445.25;;;-8.03;81.85
52249;BME280;38541;48.130;8.378;2022-12-18T01:42:26;93440.81;;;-8.00;81.24
52249;BME280;38541;48.130;8.378;2022-12-18T01:47:50;93441.63;;;-7.90;81.44
52249;BME280;38541;48.130;8.378;2022-12-18T01:53:04;93436.97;;;-7.85;81.05
52249;BME280;38541;48.130;8.378;2022-12-18T01:55:55;93443.41;;;-7.81;80.69
52249;BME280;38541;48.130;8.378;2022-12-18T01:59:10;93448.34;;;-7.79;80.52
52249;BME280;38541;48.130;8.378;2022-12-18T02:01:11;93453.06;;;-7.75;80.79
52249;BME280;38541;48.130;8.378;2022-12-18T02:03:41;93450.91;;;-7.69;80.77
52249;BME280;38541;48.130;8.378;2022-12-18T02:08:48;93449.56;;;-7.64;80.47
52249;BME280;38541;48.130;8.378;2022-12-18T02:11:36;93443.41;;;-7.61;80.70
52249;BME280;38541;48.130;8.378;2022-12-18T02:14:32;93442.59;;;-7.62;80.31
52249;BME280;38541;48.130;8.378;2022-12-18T02:17:22;93452.00;;;-7.62;80.08
52249;BME280;38541;48.130;8.378;2022-12-18T02:20:18;93456.16;;;-7.61;80.25
52249;BME280;38541;48.130;8.378;2022-12-18T02:25:56;93459.00;;;-7.64;80.37
52249;BME280;38541;48.130;8.378;2022-12-18T02:28:31;93457.38;;;-7.65;79.91
52249;BME280;38541;48.130;8.378;2022-12-18T02:31:04;93460.59;;;-7.63;80.25
52249;BME280;38541;48.130;8.378;2022-12-18T02:33:34;93459.00;;;-7.64;80.09
52249;BME280;38541;48.130;8.378;2022-12-18T02:36:03;93470.81;;;-7.63;80.18
52249;BME280;38541;48.130;8.378;2022-12-18T02:38:32;93468.78;;;-7.60;80.13
52249;BME280;38541;48.130;8.378;2022-12-18T02:41:08;93463.81;;;-7.61;80.32
52249;BME280;38541;48.130;8.378;2022-12-18T02:43:35;93467.03;;;-7.59;80.16
52249;BME280;38541;48.130;8.378;2022-12-18T02:46:27;93462.88;;;-7.60;80.18
52249;BME280;38541;48.130;8.378;2022-12-18T02:49:02;93467.84;;;-7.59;80.27
52249;BME280;38541;48.130;8.378;2022-12-18T02:51:39;93464.38;;;-7.57;80.43
52249;BME280;38541;48.130;8.378;2022-12-18T02:57:06;93451.47;;;-7.56;80.36
52249;BME280;38541;48.130;8.378;2022-12-18T02:59:47;93455.50;;;-7.53;80.26
52249;BME280;38541;48.130;8.378;2022-12-18T03:05:01;93451.84;;;-7.51;80.57
52249;BME280;38541;48.130;8.378;2022-12-18T03:07:38;93451.63;;;-7.48;80.62
52249;BME280;38541;48.130;8.378;2022-12-18T03:10:12;93436.44;;;-7.49;80.29
52249;BME280;38541;48.130;8.378;2022-12-18T03:12:47;93450.25;;;-7.52;80.56
52249;BME280;38541;48.130;8.378;2022-12-18T03:15:48;93443.53;;;-7.53;79.96
52249;BME280;38541;48.130;8.378;2022-12-18T03:18:23;93448.53;;;-7.51;80.19
52249;BME280;38541;48.130;8.378;2022-12-18T03:20:53;93452.41;;;-7.47;80.15
52249;BME280;38541;48.130;8.378;2022-12-18T03:23:24;93457.63;;;-7.49;80.23
52249;BME280;38541;48.130;8.378;2022-12-18T03:25:57;93465.72;;;-7.53;79.69
52249;BME280;38541;48.130;8.378;2022-12-18T03:28:39;93453.75;;;-7.53;79.80
52249;BME280;38541;48.130;8.378;2022-12-18T03:31:11;93462.22;;;-7.52;79.83
52249;BME280;38541;48.130;8.378;2022-12-18T03:36:22;93452.13;;;-7.54;79.45
52249;BME280;38541;48.130;8.378;2022-12-18T03:38:50;93444.75;;;-7.57;79.20
52249;BME280;38541;48.130;8.378;2022-12-18T03:50:03;93472.13;;;-7.69;79.02
52249;BME280;38541;48.130;8.378;2022-12-18T03:52:45;93465.44;;;-7.70;79.08
52249;BME280;38541;48.130;8.378;2022-12-18T03:55:15;93464.09;;;-7.74;78.86
52249;BME280;38541;48.130;8.378;2022-12-18T03:57:47;93463.25;;;-7.75;79.18
52249;BME280;38541;48.130;8.378;2022-12-18T04:00:17;93462.47;;;-7.75;79.20
52249;BME280;38541;48.130;8.378;2022-12-18T04:02:55;93458.44;;;-7.78;79.44
52249;BME280;38541;48.130;8.378;2022-12-18T04:05:32;93459.22;;;-7.77;79.70
52249;BME280;38541;48.130;8.378;2022-12-18T04:08:01;93454.13;;;-7.77;79.51
52249;BME280;38541;48.130;8.378;2022-12-18T04:10:29;93465.25;;;-7.78;79.67
52249;BME280;38541;48.130;8.378;2022-12-18T04:12:58;93468.63;;;-7.78;79.98
52249;BME280;38541;48.130;8.378;2022-12-18T04:15:25;93474.28;;;-7.74;79.98
52249;BME280;38541;48.130;8.378;2022-12-18T04:17:52;93477.91;;;-7.77;79.80
52249;BME280;38541;48.130;8.378;2022-12-18T04:20:22;93473.72;;;-7.78;79.77
52249;BME280;38541;48.130;8.378;2022-12-18T04:22:49;93478.00;;;-7.78;79.76
52249;BME280;38541;48.130;8.378;2022-12-18T04:25:17;93474.69;;;-7.79;79.65
52249;BME280;38541;48.130;8.378;2022-12-18T04:28:04;93478.84;;;-7.78;79.99
52249;BME280;38541;48.130;8.378;2022-12-18T04:30:32;93476.16;;;-7.76;80.35
52249;BME280;38541;48.130;8.378;2022-12-18T04:32:59;93470.25;;;-7.77;80.11
52249;BME280;38541;48.130;8.378;2022-12-18T04:35:26;93471.19;;;-7.78;80.09
52249;BME280;38541;48.130;8.378;2022-12-18T04:37:53;93470.50;;;-7.80;79.86
52249;BME280;38541;48.130;8.378;2022-12-18T04:40:20;93470.25;;;-7.77;79.75
52249;BME280;38541;48.130;8.378;2022-12-18T04:42:47;93474.13;;;-7.82;80.23
52249;BME280;38541;48.130;8.378;2022-12-18T04:45:14;93469.16;;;-7.84;79.90
52249;BME280;38541;48.130;8.378;2022-12-18T04:47:40;93464.06;;;-7.84;79.85
52249;BME280;38541;48.130;8.378;2022-12-18T04:50:07;93458.69;;;-7.81;80.28
52249;BME280;38541;48.130;8.378;2022-12-18T04:52:33;93462.97;;;-7.81;80.13
52249;BME280;38541;48.130;8.378;2022-12-18T04:55:00;93468.91;;;-7.81;80.04
52249;BME280;38541;48.130;8.378;2022-12-18T04:57:26;93469.84;;;-7.82;80.26
52249;BME280;38541;48.130;8.378;2022-12-18T04:59:53;93477.50;;;-7.82;80.13
52249;BME280;38541;48.130;8.378;2022-12-18T05:02:19;93477.50;;;-7.82;79.98
52249;BME280;38541;48.130;8.378;2022-12-18T05:04:46;93473.06;;;-7.80;80.23
52249;BME280;38541;48.130;8.378;2022-12-18T05:07:12;93477.50;;;-7.82;79.71
52249;BME280;38541;48.130;8.378;2022-12-18T05:09:39;93472.41;;;-7.82;79.99
52249;BME280;38541;48.130;8.378;2022-12-18T05:12:07;93480.97;;;-7.83;79.77
52249;BME280;38541;48.130;8.378;2022-12-18T05:14:33;93476.66;;;-7.82;79.59
52249;BME280;38541;48.130;8.378;2022-12-18T05:16:59;93481.91;;;-7.84;79.73
52249;BME280;38541;48.130;8.378;2022-12-18T05:19:26;93479.38;;;-7.84;79.86
52249;BME280;38541;48.130;8.378;2022-12-18T05:21:53;93476.16;;;-7.86;79.92
52249;BME280;38541;48.130;8.378;2022-12-18T05:24:19;93480.69;;;-7.90;79.70
52249;BME280;38541;48.130;8.378;2022-12-18T05:26:46;93482.31;;;-7.89;79.67
52249;BME280;38541;48.130;8.378;2022-12-18T05:29:12;93474.50;;;-7.87;79.93
52249;BME280;38541;48.130;8.378;2022-12-18T05:31:39;93478.94;;;-7.89;79.81
52249;BME280;38541;48.130;8.378;2022-12-18T05:34:08;93480.81;;;-7.91;79.78
52249;BME280;38541;48.130;8.378;2022-12-18T05:36:35;93482.44;;;-7.90;79.80
52249;BME280;38541;48.130;8.378;2022-12-18T05:39:02;93479.75;;;-7.89;79.99
52249;BME280;38541;48.130;8.378;2022-12-18T05:41:29;93471.28;;;-7.89;79.76
52249;BME280;38541;48.130;8.378;2022-12-18T05:43:56;93477.22;;;-7.89;79.88
52249;BME280;38541;48.130;8.378;2022-12-18T05:46:22;93478.00;;;-7.88;79.94
52249;BME280;38541;48.130;8.378;2022-12-18T05:48:50;93484.97;;;-7.90;79.90
52249;BME280;38541;48.130;8.378;2022-12-18T05:51:19;93481.50;;;-7.89;79.99
52249;BME280;38541;48.130;8.378;2022-12-18T05:53:46;93483.25;;;-7.90;79.80
52249;BME280;38541;48.130;8.378;2022-12-18T05:56:15;93480.53;;;-7.88;79.94
52249;BME280;38541;48.130;8.378;2022-12-18T05:58:42;93481.50;;;-7.89;79.95
52249;BME280;38541;48.130;8.378;2022-12-18T06:01:18;93495.06;;;-7.89;80.21
52249;BME280;38541;48.130;8.378;2022-12-18T06:03:45;93493.19;;;-7.86;79.67
52249;BME280;38541;48.130;8.378;2022-12-18T06:06:18;93497.47;;;-7.87;79.89
52249;BME280;38541;48.130;8.378;2022-12-18T06:08:45;93493.31;;;-7.88;80.18
52249;BME280;38541;48.130;8.378;2022-12-18T06:11:13;93495.84;;;-7.88;79.82
52249;BME280;38541;48.130;8.378;2022-12-18T06:13:41;93501.88;;;-7.89;79.99
52249;BME280;38541;48.130;8.378;2022-12-18T06:16:08;93493.56;;;-7.91;79.97
52249;BME280;38541;48.130;8.378;2022-12-18T06:18:38;93506.31;;;-7.91;80.03
52249;BME280;38541;48.130;8.378;2022-12-18T06:21:05;93504.59;;;-7.91;79.96
52249;BME280;38541;48.130;8.378;2022-12-18T06:23:31;93514.78;;;-7.91;80.08
52249;BME280;38541;48.130;8.378;2022-12-18T06:25:57;93513.03;;;-7.90;79.95
52249;BME280;38541;48.130;8.378;2022-12-18T06:28:24;93519.88;;;-7.91;80.04
52249;BME280;38541;48.130;8.378;2022-12-18T06:30:50;93521.63;;;-7.91;79.94
52249;BME280;38541;48.130;8.378;2022-12-18T06:33:17;93519.75;;;-7.89;80.08
52249;BME280;38541;48.130;8.378;2022-12-18T06:35:43;93522.28;;;-7.89;80.04
52249;BME280;38541;48.130;8.378;2022-12-18T06:38:10;93522.97;;;-7.87;79.99
52249;BME280;38541;48.130;8.378;2022-12-18T06:40:38;93531.31;;;-7.85;79.78
52249;BME280;38541;48.130;8.378;2022-12-18T06:43:05;93532.38;;;-7.88;79.56
52249;BME280;38541;48.130;8.378;2022-12-18T06:45:32;93535.88;;;-7.89;79.87
52249;BME280;38541;48.130;8.378;2022-12-18T06:47:59;93535.72;;;-7.87;79.95
52249;BME280;38541;48.130;8.378;2022-12-18T06:50:25;93536.66;;;-7.88;79.92
52249;BME280;38541;48.130;8.378;2022-12-18T06:52:52;93541.63;;;-7.86;79.74
52249;BME280;38541;48.130;8.378;2022-12-18T06:55:18;93542.31;;;-7.84;79.58
52249;BME280;38541;48.130;8.378;2022-12-18T06:57:45;93538.81;;;-7.83;79.53
52249;BME280;38541;48.130;8.378;2022-12-18T07:00:12;93536.28;;;-7.83;79.55
52249;BME280;38541;48.130;8.378;2022-12-18T07:02:38;93554.28;;;-7.85;79.17
52249;BME280;38541;48.130;8.378;2022-12-18T07:05:06;93549.97;;;-7.84;79.24
52249;BME280;38541;48.130;8.378;2022-12-18T07:07:36;93546.47;;;-7.83;79.11
52249;BME280;38541;48.130;8.378;2022-12-18T07:10:03;93548.91;;;-7.82;78.89
52249;BME280;38541;48.130;8.378;2022-12-18T07:12:30;93548.09;;;-7.82;79.28
52249;BME280;38541;48.130;8.378;2022-12-18T07:14:56;93550.53;;;-7.81;79.09
52249;BME280;38541;48.130;8.378;2022-12-18T07:17:23;93544.47;;;-7.80;79.15
52249;BME280;38541;48.130;8.378;2022-12-18T07:19:49;93543.53;;;-7.79;78.99
52249;BME280;38541;48.130;8.378;2022-12-18T07:22:16;93548.50;;;-7.77;79.25
52249;BME280;38541;48.130;8.378;2022-12-18T07:24:42;93551.75;;;-7.75;78.88
52249;BME280;38541;48.130;8.378;2022-12-18T07:27:09;93557.78;;;-7.76;78.97
52249;BME280;38541;48.130;8.378;2022-12-18T07:29:35;93549.88;;;-7.73;79.02
52249;BME280;38541;48.130;8.378;2022-12-18T07:32:03;93554.81;;;-7.71;78.97
52249;BME280;38541;48.130;8.378;2022-12-18T07:34:29;93557.25;;;-7.70;78.96
52249;BME280;38541;48.130;8.378;2022-12-18T07:36:56;93556.19;;;-7.67;78.87
52249;BME280;38541;48.130;8.378;2022-12-18T07:39:22;93559.28;;;-7.64;78.83
52249;BME280;38541;48.130;8.378;2022-12-18T07:41:49;93563.19;;;-7.60;78.88
52249;BME280;38541;48.130;8.378;2022-12-18T07:44:38;93575.81;;;-7.58;78.72
52249;BME280;38541;48.130;8.378;2022-12-18T07:47:05;93571.25;;;-7.54;78.80
52249;BME280;38541;48.130;8.378;2022-12-18T07:49:37;93582.94;;;-7.52;79.01
52249;BME280;38541;48.130;8.378;2022-12-18T07:52:04;93580.13;;;-7.49;78.53
52249;BME280;38541;48.130;8.378;2022-12-18T07:54:30;93580.81;;;-7.47;78.36
52249;BME280;38541;48.130;8.378;2022-12-18T07:56:57;93588.47;;;-7.47;78.32
52249;BME280;38541;48.130;8.378;2022-12-18T07:59:24;93584.03;;;-7.45;78.30
52249;BME280;38541;48.130;8.378;2022-12-18T08:01:50;93585.50;;;-7.42;77.86
52249;BME280;38541;48.130;8.378;2022-12-18T08:04:17;93584.44;;;-7.39;78.08
52249;BME280;38541;48.130;8.378;2022-12-18T08:06:43;93593.34;;;-7.34;77.96
52249;BME280;38541;48.130;8.378;2022-12-18T08:09:13;93598.47;;;-7.24;77.84
52249;BME280;38541;48.130;8.378;2022-12-18T08:11:40;93599.13;;;-7.22;77.53
52249;BME280;38541;48.130;8.378;2022-12-18T08:14:06;93593.47;;;-7.16;77.45
52249;BME280;38541;48.130;8.378;2022-12-18T08:16:33;93601.81;;;-7.13;76.91
52249;BME280;38541;48.130;8.378;2022-12-18T08:18:59;93606.91;;;-7.13;77.00
52249;BME280;38541;48.130;8.378;2022-12-18T08:21:28;93607.09;;;-7.05;77.45
52249;BME280;38541;48.130;8.378;2022-12-18T08:23:57;93596.59;;;-7.02;77.09
52249;BME280;38541;48.130;8.378;2022-12-18T08:26:26;93611.25;;;-6.94;77.06
52249;BME280;38541;48.130;8.378;2022-12-18T08:28:55;93606.41;;;-6.88;76.73
52249;BME280;38541;48.130;8.378;2022-12-18T08:31:22;93612.47;;;-6.89;76.36
52249;BME280;38541;48.130;8.378;2022-12-18T08:33:51;93613.81;;;-6.84;76.88
52249;BME280;38541;48.130;8.378;2022-12-18T08:36:19;93609.78;;;-6.77;76.50
52249;BME280;38541;48.130;8.378;2022-12-18T08:38:46;93608.72;;;-6.75;76.52
52249;BME280;38541;48.130;8.378;2022-12-18T08:41:15;93601.44;;;-6.69;76.11
52249;BME280;38541;48.130;8.378;2022-12-18T08:43:42;93593.09;;;-6.62;76.03
52249;BME280;38541;48.130;8.378;2022-12-18T08:46:32;93592.41;;;-6.54;75.60
52249;BME280;38541;48.130;8.378;2022-12-18T08:48:59;93586.63;;;-6.46;76.05
52249;BME280;38541;48.130;8.378;2022-12-18T08:51:26;93587.69;;;-6.39;76.12
52249;BME280;38541;48.130;8.378;2022-12-18T08:53:52;93587.38;;;-6.26;76.17
52249;BME280;38541;48.130;8.378;2022-12-18T08:56:19;93587.63;;;-6.19;75.78
52249;BME280;38541;48.130;8.378;2022-12-18T08:58:45;93578.59;;;-6.13;75.34
52249;BME280;38541;48.130;8.378;2022-12-18T09:01:12;93579.00;;;-6.08;75.44
52249;BME280;38541;48.130;8.378;2022-12-18T09:03:40;93581.50;;;-5.98;75.16
52249;BME280;38541;48.130;8.378;2022-12-18T09:06:07;93585.25;;;-5.93;75.66
52249;BME280;38541;48.130;8.378;2022-12-18T09:08:33;93584.53;;;-5.85;75.36
52249;BME280;38541;48.130;8.378;2022-12-18T09:11:00;93583.97;;;-5.79;75.82
52249;BME280;38541;48.130;8.378;2022-12-18T09:13:26;93572.53;;;-5.75;75.02
52249;BME280;38541;48.130;8.378;2022-12-18T09:15:54;93586.13;;;-5.74;75.09
52249;BME280;38541;48.130;8.378;2022-12-18T09:18:22;93590.16;;;-5.71;75.59
52249;BME280;38541;48.130;8.378;2022-12-18T09:20:49;93590.53;;;-5.66;75.35
52249;BME280;38541;48.130;8.378;2022-12-18T09:23:18;93593.19;;;-5.58;75.02
52249;BME280;38541;48.130;8.378;2022-12-18T09:25:44;93596.44;;;-5.56;75.86
52249;BME280;38541;48.130;8.378;2022-12-18T09:28:13;93593.28;;;-5.50;75.43
52249;BME280;38541;48.130;8.378;2022-12-18T09:30:42;93602.81;;;-5.42;75.05
52249;BME280;38541;48.130;8.378;2022-12-18T09:33:09;93600.34;;;-5.34;75.34
52249;BME280;38541;48.130;8.378;2022-12-18T09:35:37;93597.22;;;-5.27;74.49
52249;BME280;38541;48.130;8.378;2022-12-18T09:38:06;93592.34;;;-5.21;74.92
52249;BME280;38541;48.130;8.378;2022-12-18T09:40:35;93595.25;;;-5.16;74.59
52249;BME280;38541;48.130;8.378;2022-12-18T09:43:04;93600.63;;;-5.09;75.03
52249;BME280;38541;48.130;8.378;2022-12-18T09:45:42;93600.31;;;-5.06;74.77
52249;BME280;38541;48.130;8.378;2022-12-18T09:48:18;93598.78;;;-4.98;74.60
52249;BME280;38541;48.130;8.378;2022-12-18T09:50:46;93584.88;;;-4.96;74.60
52249;BME280;38541;48.130;8.378;2022-12-18T09:53:19;93586.25;;;-4.83;75.20
52249;BME280;38541;48.130;8.378;2022-12-18T09:55:47;93592.25;;;-4.75;74.91
52249;BME280;38541;48.130;8.378;2022-12-18T10:00:53;93589.28;;;-4.52;74.48
52249;BME280;38541;48.130;8.378;2022-12-18T10:03:21;93591.22;;;-4.46;74.43
52249;BME280;38541;48.130;8.378;2022-12-18T10:06:12;93598.22;;;-4.30;74.05
52249;BME280;38541;48.130;8.378;2022-12-18T10:08:51;93599.59;;;-4.17;73.75
52249;BME280;38541;48.130;8.378;2022-12-18T10:17:01;93604.41;;;-3.61;73.36
52249;BME280;38541;48.130;8.378;2022-12-18T10:19:54;93608.97;;;-3.47;73.11
52249;BME280;38541;48.130;8.378;2022-12-18T10:22:43;93594.72;;;-3.41;72.87
52249;BME280;38541;48.130;8.378;2022-12-18T10:27:46;93604.91;;;-3.15;72.41
52249;BME280;38541;48.130;8.378;2022-12-18T10:30:20;93604.75;;;-3.05;72.37
52249;BME280;38541;48.130;8.378;2022-12-18T10:32:47;93598.06;;;-2.97;72.70
52249;BME280;38541;48.130;8.378;2022-12-18T10:35:24;93587.94;;;-2.82;72.48
52249;BME280;38541;48.130;8.378;2022-12-18T10:43:35;93581.56;;;-2.53;71.58
52249;BME280;38541;48.130;8.378;2022-12-18T10:51:40;93577.97;;;-2.19;70.70
52249;BME280;38541;48.130;8.378;2022-12-18T10:54:14;93583.13;;;-2.11;71.10
52249;BME280;38541;48.130;8.378;2022-12-18T10:56:42;93583.75;;;-2.01;71.04
52249;BME280;38541;48.130;8.378;2022-12-18T10:59:12;93575.72;;;-1.97;70.66
52249;BME280;38541;48.130;8.378;2022-12-18T11:01:55;93567.03;;;-1.96;70.51
52249;BME280;38541;48.130;8.378;2022-12-18T11:04:30;93567.00;;;-1.80;71.25
52249;BME280;38541;48.130;8.378;2022-12-18T11:06:58;93566.28;;;-1.65;70.73
52249;BME280;38541;48.130;8.378;2022-12-18T11:09:30;93566.06;;;-1.47;70.33
52249;BME280;38541;48.130;8.378;2022-12-18T11:12:00;93567.81;;;-1.39;69.58
52249;BME280;38541;48.130;8.378;2022-12-18T11:14:30;93560.50;;;-1.27;70.04
52249;BME280;38541;48.130;8.378;2022-12-18T11:16:59;93561.91;;;-1.17;70.03
52249;BME280;38541;48.130;8.378;2022-12-18T11:19:56;93540.25;;;-1.07;69.36
52249;BME280;38541;48.130;8.378;2022-12-18T11:22:31;93546.00;;;-0.97;69.43
52249;BME280;38541;48.130;8.378;2022-12-18T11:25:00;93540.16;;;-0.91;68.97
52249;BME280;38541;48.130;8.378;2022-12-18T11:27:59;93537.69;;;-0.84;68.65
52249;BME280;38541;48.130;8.378;2022-12-18T11:33:01;93542.34;;;-0.79;68.25
52249;BME280;38541;48.130;8.378;2022-12-18T11:38:18;93542.91;;;-0.69;68.21
52249;BME280;38541;48.130;8.378;2022-12-18T11:40:51;93540.44;;;-0.62;68.11
52249;BME280;38541;48.130;8.378;2022-12-18T11:43:26;93541.53;;;-0.56;67.46
52249;BME280;38541;48.130;8.378;2022-12-18T11:45:59;93543.09;;;-0.47;68.13
52249;BME280;38541;48.130;8.378;2022-12-18T11:48:43;93540.19;;;-0.29;67.45
52249;BME280;38541;48.130;8.378;2022-12-18T11:51:18;93541.25;;;-0.23;67.24
52249;BME280;38541;48.130;8.378;2022-12-18T11:53:52;93540.19;;;-0.14;67.63
52249;BME280;38541;48.130;8.378;2022-12-18T11:56:43;93534.44;;;0.14;66.64
52249;BME280;38541;48.130;8.378;2022-12-18T11:59:32;93526.34;;;0.17;66.27
52249;BME280;38541;48.130;8.378;2022-12-18T12:07:51;93521.69;;;0.27;66.16
52249;BME280;38541;48.130;8.378;2022-12-18T12:11:01;93519.81;;;0.36;65.86
52249;BME280;38541;48.130;8.378;2022-12-18T12:16:17;93521.13;;;0.47;65.28
52249;BME280;38541;48.130;8.378;2022-12-18T12:26:51;93511.69;;;0.54;65.22
52249;BME280;38541;48.130;8.378;2022-12-18T12:30:14;93507.25;;;0.48;65.10
52249;BME280;38541;48.130;8.378;2022-12-18T12:38:02;93513.69;;;0.22;66.08
52249;BME280;38541;48.130;8.378;2022-12-18T12:40:34;93517.50;;;0.26;66.07
52249;BME280;38541;48.130;8.378;2022-12-18T12:43:41;93516.00;;;0.17;65.44
52249;BME280;38541;48.130;8.378;2022-12-18T12:46:18;93526.59;;;0.22;65.90
52249;BME280;38541;48.130;8.378;2022-12-18T12:48:58;93526.59;;;0.22;65.73
52249;BME280;38541;48.130;8.378;2022-12-18T12:51:33;93530.00;;;0.23;65.88
52249;BME280;38541;48.130;8.378;2022-12-18T12:54:03;93525.97;;;0.20;66.35
52249;BME280;38541;48.130;8.378;2022-12-18T12:56:56;93521.34;;;0.16;65.91
52249;BME280;38541;48.130;8.378;2022-12-18T12:59:56;93523.75;;;0.17;66.29
52249;BME280;38541;48.130;8.378;2022-12-18T13:02:51;93526.06;;;0.12;66.29
52249;BME280;38541;48.130;8.378;2022-12-18T13:08:12;93528.81;;;0.10;66.22
52249;BME280;38541;48.130;8.378;2022-12-18T13:10:49;93522.78;;;0.18;66.44
52249;BME280;38541;48.130;8.378;2022-12-18T13:13:56;93525.00;;;0.21;66.32
52249;BME280;38541;48.130;8.378;2022-12-18T13:16:24;93528.91;;;0.17;65.67
52249;BME280;38541;48.130;8.378;2022-12-18T13:18:53;93532.38;;;0.24;65.85
52249;BME280;38541;48.130;8.378;2022-12-18T13:21:24;93524.47;;;0.26;66.05
52249;BME280;38541;48.130;8.378;2022-12-18T13:23:54;93528.56;;;0.35;65.78
52249;BME280;38541;48.130;8.378;2022-12-18T13:28:55;93527.13;;;0.18;65.70
52249;BME280;38541;48.130;8.378;2022-12-18T13:34:11;93525.06;;;-0.02;66.77
52249;BME280;38541;48.130;8.378;2022-12-18T13:37:35;93521.59;;;0.06;66.49
52249;BME280;38541;48.130;8.378;2022-12-18T13:40:48;93531.56;;;-0.06;66.95
52249;BME280;38541;48.130;8.378;2022-12-18T13:48:23;93519.63;;;-0.22;66.97
52249;BME280;38541;48.130;8.378;2022-12-18T13:53:48;93519.72;;;-0.16;67.05
52249;BME280;38541;48.130;8.378;2022-12-18T13:56:17;93521.41;;;-0.23;66.75
52249;BME280;38541;48.130;8.378;2022-12-18T13:58:46;93524.53;;;-0.27;66.92
52249;BME280;38541;48.130;8.378;2022-12-18T14:01:29;93517.47;;;-0.34;67.26
52249;BME280;38541;48.130;8.378;2022-12-18T14:04:34;93522.09;;;-0.44;67.16
52249;BME280;38541;48.130;8.378;2022-12-18T14:07:04;93521.78;;;-0.49;67.36
52249;BME280;38541;48.130;8.378;2022-12-18T14:09:39;93521.69;;;-0.56;67.49
52249;BME280;38541;48.130;8.378;2022-12-18T14:12:06;93523.00;;;-0.60;67.71
52249;BME280;38541;48.130;8.378;2022-12-18T14:14:59;93530.44;;;-0.80;68.51
52249;BME280;38541;48.130;8.378;2022-12-18T14:17:26;93522.22;;;-0.84;68.47
52249;BME280;38541;48.130;8.378;2022-12-18T14:19:53;93516.78;;;-0.89;68.39
52249;BME280;38541;48.130;8.378;2022-12-18T14:22:23;93522.59;;;-0.95;68.96
52249;BME280;38541;48.130;8.378;2022-12-18T14:25:18;93525.53;;;-0.98;68.93
52249;BME280;38541;48.130;8.378;2022-12-18T14:28:07;93526.69;;;-1.01;69.16
52249;BME280;38541;48.130;8.378;2022-12-18T14:30:40;93534.47;;;-1.09;69.13
52249;BME280;38541;48.130;8.378;2022-12-18T14:35:43;93527.56;;;-1.17;69.35
52249;BME280;38541;48.130;8.378;2022-12-18T14:38:51;93538.72;;;-1.25;69.61
52249;BME280;38541;48.130;8.378;2022-12-18T14:41:18;93537.81;;;-1.32;69.92
52249;BME280;38541;48.130;8.378;2022-12-18T14:43:47;93540.09;;;-1.37;69.94
52249;BME280;38541;48.130;8.378;2022-12-18T14:48:57;93536.28;;;-1.50;70.37
52249;BME280;38541;48.130;8.378;2022-12-18T14:51:28;93541.28;;;-1.56;70.88
52249;BME280;38541;48.130;8.378;2022-12-18T14:53:57;93548.88;;;-1.63;70.65
52249;BME280;38541;48.130;8.378;2022-12-18T14:56:27;93539.88;;;-1.67;70.87
52249;BME280;38541;48.130;8.378;2022-12-18T14:59:02;93537.00;;;-1.73;70.76
52249;BME280;38541;48.130;8.378;2022-12-18T15:01:33;93540.25;;;-1.79;71.07
52249;BME280;38541;48.130;8.378;2022-12-18T15:04:01;93539.31;;;-1.86;71.10